sensor_id;sensor_type;location;lat;lon;timestamp;pressure;altitude;pressure_sealevel;temperature;humidity
41254;BME280;26987;59.928;30.306;2023-08-06T00:01:13;101414.06;;;19.56;90.18
41254;BME280;26987;59.928;30.306;2023-08-06T00:03:40;101418.44;;;19.57;89.66
41254;BME280;26987;59.928;30.306;2023-08-06T00:06:08;101427.41;;;19.57;89.71
41254;BME280;26987;59.928;30.306;2023-08-06T00:08:36;101415.66;;;19.51;89.67
41254;BME280;26987;59.928;30.306;2023-08-06T00:11:04;101425.53;;;19.58;89.68
41254;BME280;26987;59.928;30.306;2023-08-06T00:13:32;101421.16;;;19.57;89.73
41254;BME280;26987;59.928;30.306;2023-08-06T00:16:10;101421.72;;;19.59;89.62
41254;BME280;26987;59.928;30.306;2023-08-06T00:18:38;101420.91;;;19.58;89.56
41254;BME280;26987;59.928;30.306;2023-08-06T00:21:05;101426.09;;;19.60;89.79
41254;BME280;26987;59.928;30.306;2023-08-06T00:23:33;101420.41;;;19.61;89.49
41254;BME280;26987;59.928;30.306;2023-08-06T00:26:01;101434.25;;;19.60;89.47
41254;BME280;26987;59.928;30.306;2023-08-06T00:28:29;101428.81;;;19.60;89.46
41254;BME280;26987;59.928;30.306;2023-08-06T00:30:57;101426.09;;;19.60;89.74
41254;BME280;26987;59.928;30.306;2023-08-06T00:33:26;101426.66;;;19.62;89.40
41254;BME280;26987;59.928;30.306;2023-08-06T00:35:54;101430.47;;;19.61;89.33
41254;BME280;26987;59.928;30.306;2023-08-06T00:38:22;101419.50;;;19.56;89.23
41254;BME280;26987;59.928;30.306;2023-08-06T00:40:49;101429.31;;;19.57;89.33
41254;BME280;26987;59.928;30.306;2023-08-06T00:43:17;101429.31;;;19.57;89.45
41254;BME280;26987;59.928;30.306;2023-08-06T00:45:45;101433.09;;;19.56;89.45
41254;BME280;26987;59.928;30.306;2023-08-06T00:48:14;101418.94;;;19.53;89.62
41254;BME280;26987;59.928;30.306;2023-08-06T00:50:43;101426.28;;;19.53;89.69
41254;BME280;26987;59.928;30.306;2023-08-06T00:53:12;101430.88;;;19.52;89.91
41254;BME280;26987;59.928;30.306;2023-08-06T00:55:44;101431.13;;;19.51;90.14
41254;BME280;26987;59.928;30.306;2023-08-06T00:58:12;101421.50;;;19.43;90.34
41254;BME280;26987;59.928;30.306;2023-08-06T01:00:40;101417.25;;;19.47;90.46
41254;BME280;26987;59.928;30.306;2023-08-06T01:03:08;101424.31;;;19.48;90.61
41254;BME280;26987;59.928;30.306;2023-08-06T01:05:36;101415.31;;;19.48;90.71
41254;BME280;26987;59.928;30.306;2023-08-06T01:08:15;101409.63;;;19.49;90.99
41254;BME280;26987;59.928;30.306;2023-08-06T01:10:53;101403.06;;;19.45;91.04
41254;BME280;26987;59.928;30.306;2023-08-06T01:13:32;101393.53;;;19.43;91.21
41254;BME280;26987;59.928;30.306;2023-08-06T01:16:01;101385.28;;;19.37;91.49
41254;BME280;26987;59.928;30.306;2023-08-06T01:18:31;101386.34;;;19.36;91.53
41254;BME280;26987;59.928;30.306;2023-08-06T01:21:01;101390.97;;;19.36;91.91
41254;BME280;26987;59.928;30.306;2023-08-06T01:23:28;101387.69;;;19.34;91.88
41254;BME280;26987;59.928;30.306;2023-08-06T01:26:05;101387.69;;;19.34;92.13
41254;BME280;26987;59.928;30.306;2023-08-06T01:28:39;101389.56;;;19.33;92.10
41254;BME280;26987;59.928;30.306;2023-08-06T01:31:13;101383.56;;;19.31;92.19
41254;BME280;26987;59.928;30.306;2023-08-06T01:33:43;101384.78;;;19.40;90.69
41254;BME280;26987;59.928;30.306;2023-08-06T01:36:14;101387.03;;;19.26;92.22
41254;BME280;26987;59.928;30.306;2023-08-06T01:38:43;101392.47;;;19.26;92.66
41254;BME280;26987;59.928;30.306;2023-08-06T01:41:11;101386.97;;;19.21;92.88
41254;BME280;26987;59.928;30.306;2023-08-06T01:43:38;101367.91;;;19.04;93.21
41254;BME280;26987;59.928;30.306;2023-08-06T01:46:06;101401.09;;;19.23;93.20
41254;BME280;26987;59.928;30.306;2023-08-06T01:48:34;101396.50;;;19.24;93.05
41254;BME280;26987;59.928;30.306;2023-08-06T01:51:04;101398.13;;;19.25;92.59
41254;BME280;26987;59.928;30.306;2023-08-06T01:53:34;101386.78;;;19.28;92.67
41254;BME280;26987;59.928;30.306;2023-08-06T01:56:02;101377.22;;;19.25;92.46
41254;BME280;26987;59.928;30.306;2023-08-06T01:58:29;101366.84;;;19.22;92.46
41254;BME280;26987;59.928;30.306;2023-08-06T02:00:57;101370.72;;;19.26;92.21
41254;BME280;26987;59.928;30.306;2023-08-06T02:03:25;101366.59;;;19.24;92.44
41254;BME280;26987;59.928;30.306;2023-08-06T02:05:53;101366.84;;;19.22;92.10
41254;BME280;26987;59.928;30.306;2023-08-06T02:08:21;101367.94;;;19.21;92.83
41254;BME280;26987;59.928;30.306;2023-08-06T02:10:50;101367.69;;;19.23;92.98
41254;BME280;26987;59.928;30.306;2023-08-06T02:13:18;101369.56;;;19.22;92.34
41254;BME280;26987;59.928;30.306;2023-08-06T02:15:46;101372.28;;;19.22;92.78
41254;BME280;26987;59.928;30.306;2023-08-06T02:18:15;101354.22;;;19.11;93.38
41254;BME280;26987;59.928;30.306;2023-08-06T02:20:43;101279.50;;;18.57;93.23
41254;BME280;26987;59.928;30.306;2023-08-06T02:23:10;101356.69;;;19.12;93.04
41254;BME280;26987;59.928;30.306;2023-08-06T02:25:38;101368.09;;;19.14;93.62
41254;BME280;26987;59.928;30.306;2023-08-06T02:28:07;101371.66;;;19.15;93.51
41254;BME280;26987;59.928;30.306;2023-08-06T02:30:35;101366.81;;;19.17;93.29
41254;BME280;26987;59.928;30.306;2023-08-06T02:33:03;101360.28;;;19.18;93.10
41254;BME280;26987;59.928;30.306;2023-08-06T02:35:31;101357.81;;;19.16;92.90
41254;BME280;26987;59.928;30.306;2023-08-06T02:37:59;101367.59;;;19.18;92.83
41254;BME280;26987;59.928;30.306;2023-08-06T02:40:27;101376.84;;;19.16;93.06
41254;BME280;26987;59.928;30.306;2023-08-06T02:42:56;101374.88;;;19.12;93.33
41254;BME280;26987;59.928;30.306;2023-08-06T02:45:25;101344.00;;;18.84;93.46
41254;BME280;26987;59.928;30.306;2023-08-06T02:47:53;101368.75;;;19.04;93.82
41254;BME280;26987;59.928;30.306;2023-08-06T02:50:20;101374.19;;;19.04;94.13
41254;BME280;26987;59.928;30.306;2023-08-06T02:52:49;101377.66;;;19.00;94.43
41254;BME280;26987;59.928;30.306;2023-08-06T02:55:17;101375.44;;;18.97;94.90
41254;BME280;26987;59.928;30.306;2023-08-06T02:57:48;101384.81;;;18.89;96.34
41254;BME280;26987;59.928;30.306;2023-08-06T03:00:16;101384.50;;;18.85;97.67
41254;BME280;26987;59.928;30.306;2023-08-06T03:02:46;101382.59;;;18.86;98.93
41254;BME280;26987;59.928;30.306;2023-08-06T03:05:37;101388.00;;;18.86;99.53
41254;BME280;26987;59.928;30.306;2023-08-06T03:08:05;101386.81;;;18.76;100.00
41254;BME280;26987;59.928;30.306;2023-08-06T03:10:35;101391.31;;;18.71;100.00
41254;BME280;26987;59.928;30.306;2023-08-06T03:13:05;101388.41;;;18.60;100.00
41254;BME280;26987;59.928;30.306;2023-08-06T03:15:32;101397.41;;;18.61;100.00
41254;BME280;26987;59.928;30.306;2023-08-06T03:18:03;101386.44;;;18.56;100.00
41254;BME280;26987;59.928;30.306;2023-08-06T03:20:32;101383.47;;;18.57;100.00
41254;BME280;26987;59.928;30.306;2023-08-06T03:23:00;101387.03;;;18.58;100.00
41254;BME280;26987;59.928;30.306;2023-08-06T03:25:30;101387.63;;;18.60;100.00
41254;BME280;26987;59.928;30.306;2023-08-06T03:27:59;101380.28;;;18.60;100.00
41254;BME280;26987;59.928;30.306;2023-08-06T03:30:27;101376.75;;;18.60;100.00
41254;BME280;26987;59.928;30.306;2023-08-06T03:32:55;101374.03;;;18.60;100.00
41254;BME280;26987;59.928;30.306;2023-08-06T03:35:25;101361.94;;;18.50;100.00
41254;BME280;26987;59.928;30.306;2023-08-06T03:37:52;101371.63;;;18.63;100.00
41254;BME280;26987;59.928;30.306;2023-08-06T03:40:20;101380.13;;;18.67;100.00
41254;BME280;26987;59.928;30.306;2023-08-06T03:42:49;101378.22;;;18.68;100.00
41254;BME280;26987;59.928;30.306;2023-08-06T03:45:16;101383.66;;;18.68;100.00
41254;BME280;26987;59.928;30.306;2023-08-06T03:47:44;101380.44;;;18.71;100.00
41254;BME280;26987;59.928;30.306;2023-08-06T03:50:13;101377.47;;;18.72;100.00
41254;BME280;26987;59.928;30.306;2023-08-06T03:52:42;101380.53;;;18.76;100.00
41254;BME280;26987;59.928;30.306;2023-08-06T03:55:11;101374.44;;;18.69;100.00
41254;BME280;26987;59.928;30.306;2023-08-06T03:57:39;101378.91;;;18.75;100.00
41254;BME280;26987;59.928;30.306;2023-08-06T04:00:08;101379.16;;;18.73;100.00
41254;BME280;26987;59.928;30.306;2023-08-06T04:02:41;101374.53;;;18.74;100.00
41254;BME280;26987;59.928;30.306;2023-08-06T04:05:12;101373.72;;;18.73;100.00
41254;BME280;26987;59.928;30.306;2023-08-06T04:07:41;101365.47;;;18.68;100.00
41254;BME280;26987;59.928;30.306;2023-08-06T04:10:09;101373.63;;;18.68;100.00
41254;BME280;26987;59.928;30.306;2023-08-06T04:12:37;101364.22;;;18.59;100.00
41254;BME280;26987;59.928;30.306;2023-08-06T04:15:06;101372.22;;;18.65;100.00
41254;BME280;26987;59.928;30.306;2023-08-06T04:17:34;101362.75;;;18.68;100.00
41254;BME280;26987;59.928;30.306;2023-08-06T04:20:03;101354.06;;;18.66;100.00
41254;BME280;26987;59.928;30.306;2023-08-06T04:22:31;101347.44;;;18.62;100.00
41254;BME280;26987;59.928;30.306;2023-08-06T04:25:00;101364.47;;;18.57;100.00
41254;BME280;26987;59.928;30.306;2023-08-06T04:27:28;101354.03;;;18.49;100.00
41254;BME280;26987;59.928;30.306;2023-08-06T04:29:57;101332.13;;;18.38;100.00
41254;BME280;26987;59.928;30.306;2023-08-06T04:32:25;101335.94;;;18.37;100.00
41254;BME280;26987;59.928;30.306;2023-08-06T04:34:55;101342.41;;;18.36;100.00
41254;BME280;26987;59.928;30.306;2023-08-06T04:37:24;101339.88;;;18.30;100.00
41254;BME280;26987;59.928;30.306;2023-08-06T04:39:52;101326.19;;;18.24;100.00
41254;BME280;26987;59.928;30.306;2023-08-06T04:42:21;101331.13;;;18.27;100.00
41254;BME280;26987;59.928;30.306;2023-08-06T04:44:49;101330.53;;;18.25;100.00
41254;BME280;26987;59.928;30.306;2023-08-06T04:47:17;101323.72;;;18.23;100.00
41254;BME280;26987;59.928;30.306;2023-08-06T04:49:45;101300.03;;;18.18;100.00
41254;BME280;26987;59.928;30.306;2023-08-06T04:52:13;101331.06;;;18.39;100.00
41254;BME280;26987;59.928;30.306;2023-08-06T04:54:41;101327.78;;;18.37;100.00
41254;BME280;26987;59.928;30.306;2023-08-06T04:57:09;101320.44;;;18.38;99.67
41254;BME280;26987;59.928;30.306;2023-08-06T04:59:39;101319.38;;;18.39;99.27
41254;BME280;26987;59.928;30.306;2023-08-06T05:02:06;101322.09;;;18.39;99.21
41254;BME280;26987;59.928;30.306;2023-08-06T05:04:34;101321.34;;;18.44;98.49
41254;BME280;26987;59.928;30.306;2023-08-06T05:07:02;101320.06;;;18.46;98.37
41254;BME280;26987;59.928;30.306;2023-08-06T05:09:30;101317.91;;;18.48;97.95
41254;BME280;26987;59.928;30.306;2023-08-06T05:12:00;101321.75;;;18.52;97.75
41254;BME280;26987;59.928;30.306;2023-08-06T05:14:28;101303.19;;;18.44;97.31
41254;BME280;26987;59.928;30.306;2023-08-06T05:16:57;101309.13;;;18.58;96.29
41254;BME280;26987;59.928;30.306;2023-08-06T05:19:25;101311.91;;;18.63;95.42
41254;BME280;26987;59.928;30.306;2023-08-06T05:21:53;101307.88;;;18.66;95.63
41254;BME280;26987;59.928;30.306;2023-08-06T05:24:21;101310.06;;;18.69;95.35
41254;BME280;26987;59.928;30.306;2023-08-06T05:26:49;101300.03;;;18.70;95.37
41254;BME280;26987;59.928;30.306;2023-08-06T05:29:16;101305.47;;;18.87;94.58
41254;BME280;26987;59.928;30.306;2023-08-06T05:31:44;101307.59;;;19.02;93.56
41254;BME280;26987;59.928;30.306;2023-08-06T05:34:13;101292.84;;;19.15;92.32
41254;BME280;26987;59.928;30.306;2023-08-06T05:36:41;101285.44;;;19.33;91.84
41254;BME280;26987;59.928;30.306;2023-08-06T05:39:09;101280.19;;;19.48;91.15
41254;BME280;26987;59.928;30.306;2023-08-06T05:41:37;101267.84;;;19.63;89.23
41254;BME280;26987;59.928;30.306;2023-08-06T05:44:05;101279.88;;;19.95;88.09
41254;BME280;26987;59.928;30.306;2023-08-06T05:46:32;101285.59;;;20.21;86.54
41254;BME280;26987;59.928;30.306;2023-08-06T05:49:00;101284.53;;;20.60;84.42
41254;BME280;26987;59.928;30.306;2023-08-06T05:51:29;101287.69;;;21.38;81.05
41254;BME280;26987;59.928;30.306;2023-08-06T05:53:57;101290.34;;;22.02;77.04
41254;BME280;26987;59.928;30.306;2023-08-06T05:56:25;101285.91;;;22.89;73.29
41254;BME280;26987;59.928;30.306;2023-08-06T05:58:53;101287.63;;;23.51;70.66
41254;BME280;26987;59.928;30.306;2023-08-06T06:01:21;101288.50;;;23.87;68.31
41254;BME280;26987;59.928;30.306;2023-08-06T06:03:49;101292.19;;;25.25;63.71
41254;BME280;26987;59.928;30.306;2023-08-06T06:06:16;101281.06;;;26.13;58.72
41254;BME280;26987;59.928;30.306;2023-08-06T06:08:46;101295.34;;;26.48;57.73
41254;BME280;26987;59.928;30.306;2023-08-06T06:11:13;101295.06;;;27.34;53.93
41254;BME280;26987;59.928;30.306;2023-08-06T06:13:41;101293.63;;;27.51;53.28
41254;BME280;26987;59.928;30.306;2023-08-06T06:16:09;101288.97;;;27.23;53.64
41254;BME280;26987;59.928;30.306;2023-08-06T06:18:37;101288.88;;;27.28;54.04
41254;BME280;26987;59.928;30.306;2023-08-06T06:21:04;101279.38;;;27.35;53.61
41254;BME280;26987;59.928;30.306;2023-08-06T06:23:32;101289.31;;;27.22;54.12
41254;BME280;26987;59.928;30.306;2023-08-06T06:26:02;101280.72;;;27.23;54.76
41254;BME280;26987;59.928;30.306;2023-08-06T06:28:29;101271.25;;;26.73;56.45
41254;BME280;26987;59.928;30.306;2023-08-06T06:31:00;101287.56;;;25.64;61.23
41254;BME280;26987;59.928;30.306;2023-08-06T06:33:28;101264.94;;;25.10;63.90
41254;BME280;26987;59.928;30.306;2023-08-06T06:35:56;101243.03;;;25.48;62.57
41254;BME280;26987;59.928;30.306;2023-08-06T06:38:23;101260.25;;;25.54;62.52
41254;BME280;26987;59.928;30.306;2023-08-06T06:40:54;101266.56;;;26.60;59.80
41254;BME280;26987;59.928;30.306;2023-08-06T06:43:24;101274.59;;;28.00;54.84
41254;BME280;26987;59.928;30.306;2023-08-06T06:45:56;101264.69;;;28.22;53.77
41254;BME280;26987;59.928;30.306;2023-08-06T06:48:26;101256.75;;;28.20;53.28
41254;BME280;26987;59.928;30.306;2023-08-06T06:50:54;101259.19;;;28.22;53.17
41254;BME280;26987;59.928;30.306;2023-08-06T06:53:22;101267.75;;;28.20;52.97
41254;BME280;26987;59.928;30.306;2023-08-06T06:55:53;101248.53;;;27.10;56.46
41254;BME280;26987;59.928;30.306;2023-08-06T06:58:21;101252.59;;;26.70;58.55
41254;BME280;26987;59.928;30.306;2023-08-06T07:00:50;101244.06;;;25.52;63.09
41254;BME280;26987;59.928;30.306;2023-08-06T07:03:19;101233.28;;;25.17;64.08
41254;BME280;26987;59.928;30.306;2023-08-06T07:05:47;101244.81;;;24.95;65.35
41254;BME280;26987;59.928;30.306;2023-08-06T07:08:15;101257.25;;;25.12;65.80
41254;BME280;26987;59.928;30.306;2023-08-06T07:10:43;101256.34;;;25.60;63.33
41254;BME280;26987;59.928;30.306;2023-08-06T07:13:11;101259.25;;;25.69;63.26
41254;BME280;26987;59.928;30.306;2023-08-06T07:15:39;101250.13;;;25.74;63.33
41254;BME280;26987;59.928;30.306;2023-08-06T07:18:08;101238.91;;;25.70;63.78
41254;BME280;26987;59.928;30.306;2023-08-06T07:20:36;101250.59;;;25.76;63.58
41254;BME280;26987;59.928;30.306;2023-08-06T07:23:04;101234.22;;;25.71;63.72
41254;BME280;26987;59.928;30.306;2023-08-06T07:25:32;101231.25;;;25.28;65.42
41254;BME280;26987;59.928;30.306;2023-08-06T07:28:00;101244.69;;;25.05;66.76
41254;BME280;26987;59.928;30.306;2023-08-06T07:30:28;101230.97;;;24.81;67.53
41254;BME280;26987;59.928;30.306;2023-08-06T07:32:57;101239.97;;;25.11;66.96
41254;BME280;26987;59.928;30.306;2023-08-06T07:35:28;101241.78;;;25.40;65.91
41254;BME280;26987;59.928;30.306;2023-08-06T07:37:56;101238.47;;;25.00;66.92
41254;BME280;26987;59.928;30.306;2023-08-06T07:40:24;101233.78;;;24.76;68.03
41254;BME280;26987;59.928;30.306;2023-08-06T07:42:52;101247.59;;;24.65;68.90
41254;BME280;26987;59.928;30.306;2023-08-06T07:45:20;101220.22;;;24.36;69.71
41254;BME280;26987;59.928;30.306;2023-08-06T07:47:48;101250.34;;;24.36;70.62
41254;BME280;26987;59.928;30.306;2023-08-06T07:50:16;101236.94;;;24.34;71.02
41254;BME280;26987;59.928;30.306;2023-08-06T07:52:45;101248.75;;;24.59;70.77
41254;BME280;26987;59.928;30.306;2023-08-06T07:55:13;101243.00;;;24.61;70.38
41254;BME280;26987;59.928;30.306;2023-08-06T07:57:42;101245.19;;;24.59;70.31
41254;BME280;26987;59.928;30.306;2023-08-06T08:00:10;101255.03;;;24.89;69.78
41254;BME280;26987;59.928;30.306;2023-08-06T08:02:41;101251.50;;;24.84;69.50
41254;BME280;26987;59.928;30.306;2023-08-06T08:05:09;101248.25;;;24.81;69.99
41254;BME280;26987;59.928;30.306;2023-08-06T08:07:37;101257.88;;;25.03;69.03
41254;BME280;26987;59.928;30.306;2023-08-06T08:10:07;101253.47;;;25.08;69.33
41254;BME280;26987;59.928;30.306;2023-08-06T08:12:35;101262.00;;;25.25;68.95
41254;BME280;26987;59.928;30.306;2023-08-06T08:15:04;101244.88;;;25.34;68.53
41254;BME280;26987;59.928;30.306;2023-08-06T08:17:32;101251.78;;;25.50;68.17
41254;BME280;26987;59.928;30.306;2023-08-06T08:20:01;101255.50;;;25.40;68.28
41254;BME280;26987;59.928;30.306;2023-08-06T08:22:29;101251.38;;;25.62;68.10
41254;BME280;26987;59.928;30.306;2023-08-06T08:24:57;101252.91;;;25.88;66.82
41254;BME280;26987;59.928;30.306;2023-08-06T08:27:26;101247.69;;;26.05;65.98
41254;BME280;26987;59.928;30.306;2023-08-06T08:29:54;101249.44;;;26.15;66.08
41254;BME280;26987;59.928;30.306;2023-08-06T08:32:21;101232.91;;;26.35;64.73
41254;BME280;26987;59.928;30.306;2023-08-06T08:34:49;101242.28;;;26.34;64.83
41254;BME280;26987;59.928;30.306;2023-08-06T08:37:17;101226.34;;;26.64;64.82
41254;BME280;26987;59.928;30.306;2023-08-06T08:39:45;101214.03;;;27.03;62.56
41254;BME280;26987;59.928;30.306;2023-08-06T08:42:13;101223.38;;;27.02;62.50
41254;BME280;26987;59.928;30.306;2023-08-06T08:44:42;101215.44;;;27.01;63.08
41254;BME280;26987;59.928;30.306;2023-08-06T08:47:11;101220.97;;;27.38;61.95
41254;BME280;26987;59.928;30.306;2023-08-06T08:49:40;101207.50;;;27.36;60.79
41254;BME280;26987;59.928;30.306;2023-08-06T08:52:10;101221.97;;;27.05;62.02
41254;BME280;26987;59.928;30.306;2023-08-06T08:54:39;101214.94;;;26.56;63.95
41254;BME280;26987;59.928;30.306;2023-08-06T08:57:08;101209.53;;;26.37;64.94
41254;BME280;26987;59.928;30.306;2023-08-06T08:59:36;101218.88;;;26.36;65.33
41254;BME280;26987;59.928;30.306;2023-08-06T09:02:06;101220.53;;;26.18;65.69
41254;BME280;26987;59.928;30.306;2023-08-06T09:04:36;101216.09;;;25.89;66.74
41254;BME280;26987;59.928;30.306;2023-08-06T09:07:04;101227.03;;;25.75;67.73
41254;BME280;26987;59.928;30.306;2023-08-06T09:09:34;101223.38;;;25.79;67.70
41254;BME280;26987;59.928;30.306;2023-08-06T09:12:11;101218.84;;;25.89;67.99
41254;BME280;26987;59.928;30.306;2023-08-06T09:14:40;101223.81;;;25.87;67.23
41254;BME280;26987;59.928;30.306;2023-08-06T09:17:09;101214.88;;;25.62;68.53
41254;BME280;26987;59.928;30.306;2023-08-06T09:19:39;101221.53;;;25.55;68.87
41254;BME280;26987;59.928;30.306;2023-08-06T09:22:11;101212.47;;;25.55;68.98
41254;BME280;26987;59.928;30.306;2023-08-06T09:24:41;101206.56;;;25.67;68.95
41254;BME280;26987;59.928;30.306;2023-08-06T09:27:11;101195.50;;;25.72;68.25
41254;BME280;26987;59.928;30.306;2023-08-06T09:29:41;101212.31;;;25.85;68.32
41254;BME280;26987;59.928;30.306;2023-08-06T09:32:11;101120.47;;;25.24;67.64
41254;BME280;26987;59.928;30.306;2023-08-06T09:34:40;101211.50;;;25.84;67.97
41254;BME280;26987;59.928;30.306;2023-08-06T09:37:09;101222.09;;;25.91;67.59
41254;BME280;26987;59.928;30.306;2023-08-06T09:39:39;101219.88;;;25.93;67.72
41254;BME280;26987;59.928;30.306;2023-08-06T09:42:07;101216.13;;;26.03;67.87
41254;BME280;26987;59.928;30.306;2023-08-06T09:44:35;101211.63;;;25.93;67.16
41254;BME280;26987;59.928;30.306;2023-08-06T09:47:05;101204.16;;;25.79;68.33
41254;BME280;26987;59.928;30.306;2023-08-06T09:49:44;101198.53;;;26.04;68.14
41254;BME280;26987;59.928;30.306;2023-08-06T09:52:13;101164.72;;;25.89;67.36
41254;BME280;26987;59.928;30.306;2023-08-06T09:54:43;101186.72;;;26.03;67.92
41254;BME280;26987;59.928;30.306;2023-08-06T09:57:11;101187.19;;;26.25;67.63
41254;BME280;26987;59.928;30.306;2023-08-06T09:59:40;101192.75;;;26.19;67.39
41254;BME280;26987;59.928;30.306;2023-08-06T10:02:13;101194.34;;;26.40;67.42
41254;BME280;26987;59.928;30.306;2023-08-06T10:04:44;101182.94;;;26.61;65.66
41254;BME280;26987;59.928;30.306;2023-08-06T10:07:13;101182.25;;;26.55;65.05
41254;BME280;26987;59.928;30.306;2023-08-06T10:09:42;101190.59;;;26.36;66.35
41254;BME280;26987;59.928;30.306;2023-08-06T10:12:10;101178.84;;;26.16;67.34
41254;BME280;26987;59.928;30.306;2023-08-06T10:14:39;101145.84;;;25.68;68.80
41254;BME280;26987;59.928;30.306;2023-08-06T10:17:08;101173.25;;;25.88;69.32
41254;BME280;26987;59.928;30.306;2023-08-06T10:19:36;101173.25;;;25.88;69.27
41254;BME280;26987;59.928;30.306;2023-08-06T10:22:10;101138.44;;;25.69;69.24
41254;BME280;26987;59.928;30.306;2023-08-06T10:24:52;101175.81;;;25.98;69.29
41254;BME280;26987;59.928;30.306;2023-08-06T10:27:21;101122.97;;;25.40;69.58
41254;BME280;26987;59.928;30.306;2023-08-06T10:29:50;101177.84;;;25.78;69.55
41254;BME280;26987;59.928;30.306;2023-08-06T10:32:17;101183.22;;;25.84;69.79
41254;BME280;26987;59.928;30.306;2023-08-06T10:34:58;101173.59;;;26.00;69.43
41254;BME280;26987;59.928;30.306;2023-08-06T10:37:36;101181.66;;;26.11;68.72
41254;BME280;26987;59.928;30.306;2023-08-06T10:40:06;101169.44;;;26.03;68.59
41254;BME280;26987;59.928;30.306;2023-08-06T10:42:38;101187.78;;;26.22;68.18
41254;BME280;26987;59.928;30.306;2023-08-06T10:45:11;101188.63;;;26.36;67.66
41254;BME280;26987;59.928;30.306;2023-08-06T10:47:40;101173.38;;;26.30;67.90
41254;BME280;26987;59.928;30.306;2023-08-06T10:50:11;101182.66;;;26.34;67.68
41254;BME280;26987;59.928;30.306;2023-08-06T10:52:40;101171.72;;;26.29;68.56
41254;BME280;26987;59.928;30.306;2023-08-06T10:55:08;101168.81;;;26.53;66.59
41254;BME280;26987;59.928;30.306;2023-08-06T10:57:37;101156.06;;;26.57;66.12
41254;BME280;26987;59.928;30.306;2023-08-06T11:00:06;101152.72;;;26.61;66.83
41254;BME280;26987;59.928;30.306;2023-08-06T11:02:35;101118.81;;;26.51;66.51
41254;BME280;26987;59.928;30.306;2023-08-06T11:05:07;101169.81;;;26.72;67.53
41254;BME280;26987;59.928;30.306;2023-08-06T11:07:34;101170.81;;;26.62;67.24
41254;BME280;26987;59.928;30.306;2023-08-06T11:10:06;101170.72;;;26.53;67.14
41254;BME280;26987;59.928;30.306;2023-08-06T11:12:34;101154.03;;;26.35;67.16
41254;BME280;26987;59.928;30.306;2023-08-06T11:15:03;101155.69;;;26.50;66.65
41254;BME280;26987;59.928;30.306;2023-08-06T11:17:33;101167.56;;;26.74;66.46
41254;BME280;26987;59.928;30.306;2023-08-06T11:20:03;101161.25;;;26.59;66.91
41254;BME280;26987;59.928;30.306;2023-08-06T11:22:32;101168.50;;;26.41;67.98
41254;BME280;26987;59.928;30.306;2023-08-06T11:25:00;101166.56;;;26.41;68.01
41254;BME280;26987;59.928;30.306;2023-08-06T11:27:30;101172.97;;;26.37;68.13
41254;BME280;26987;59.928;30.306;2023-08-06T11:29:57;101162.59;;;26.34;68.74
41254;BME280;26987;59.928;30.306;2023-08-06T11:32:25;101156.88;;;26.30;68.88
41254;BME280;26987;59.928;30.306;2023-08-06T11:34:54;101161.03;;;26.27;68.79
41254;BME280;26987;59.928;30.306;2023-08-06T11:37:23;101157.88;;;26.20;68.61
41254;BME280;26987;59.928;30.306;2023-08-06T11:39:53;101149.28;;;26.07;68.89
41254;BME280;26987;59.928;30.306;2023-08-06T11:42:22;101150.44;;;26.06;69.46
41254;BME280;26987;59.928;30.306;2023-08-06T11:44:56;101157.66;;;26.16;69.00
41254;BME280;26987;59.928;30.306;2023-08-06T11:47:24;101145.75;;;26.21;68.50
41254;BME280;26987;59.928;30.306;2023-08-06T11:49:52;101149.47;;;26.30;67.85
41254;BME280;26987;59.928;30.306;2023-08-06T11:52:21;101150.38;;;26.40;67.92
41254;BME280;26987;59.928;30.306;2023-08-06T11:55:00;101152.63;;;26.52;67.91
41254;BME280;26987;59.928;30.306;2023-08-06T11:57:29;101148.25;;;26.51;67.98
41254;BME280;26987;59.928;30.306;2023-08-06T12:00:02;101136.03;;;26.43;68.27
41254;BME280;26987;59.928;30.306;2023-08-06T12:02:39;101159.56;;;26.49;68.29
41254;BME280;26987;59.928;30.306;2023-08-06T12:05:11;101142.94;;;26.54;68.41
41254;BME280;26987;59.928;30.306;2023-08-06T12:07:40;101141.81;;;26.55;68.49
41254;BME280;26987;59.928;30.306;2023-08-06T12:10:09;101144.16;;;26.62;68.28
41254;BME280;26987;59.928;30.306;2023-08-06T12:12:37;101148.97;;;26.56;68.20
41254;BME280;26987;59.928;30.306;2023-08-06T12:15:08;101138.88;;;26.52;68.56
41254;BME280;26987;59.928;30.306;2023-08-06T12:17:37;101129.19;;;26.54;68.16
41254;BME280;26987;59.928;30.306;2023-08-06T12:20:06;101138.56;;;26.53;68.47
41254;BME280;26987;59.928;30.306;2023-08-06T12:22:35;101097.56;;;26.43;68.04
41254;BME280;26987;59.928;30.306;2023-08-06T12:25:06;101128.38;;;26.54;68.24
41254;BME280;26987;59.928;30.306;2023-08-06T12:27:35;101135.31;;;26.51;68.74
41254;BME280;26987;59.928;30.306;2023-08-06T12:30:04;101131.44;;;26.52;69.05
41254;BME280;26987;59.928;30.306;2023-08-06T12:32:34;101131.41;;;26.66;68.77
41254;BME280;26987;59.928;30.306;2023-08-06T12:35:03;101127.88;;;26.66;68.87
41254;BME280;26987;59.928;30.306;2023-08-06T12:37:32;101120.63;;;26.70;68.19
41254;BME280;26987;59.928;30.306;2023-08-06T12:40:00;101131.63;;;26.70;68.33
41254;BME280;26987;59.928;30.306;2023-08-06T12:42:28;101130.63;;;26.66;68.52
41254;BME280;26987;59.928;30.306;2023-08-06T12:44:56;101126.97;;;26.56;68.91
41254;BME280;26987;59.928;30.306;2023-08-06T12:47:23;101126.13;;;26.70;68.94